Muir Milach — WDH9870 — position and weather

sailwx.info

Track history (hours):
 
Tides and Currents Weather Stations Pressure Air Temp Water Temp Dewpoint Dewpoint Depression Visibility Wind Speed Wind Dir Waves Ship Positions

Muir Milach

Owner: Aleutian Spray Reverse LLC, Seattle, WA. More information available from US FCC via Universal Licensing System and Coast Guard Vessel Documentation Center.

Last reported at 2018-Jul-23 00:01 UTC. Time now 2018-Jul-23 00:19 UTC.
Position N 46°12' W 123°56'.

Length 28 m; draft 3.5 m.

Type: Fishing. MMSI: 367672390.

Date/timePositionNaut miles runAvg speedWind from/ knotsBaromVisibWave heightAir tempDewpointWater temp
2018-Jul-23 00:01N 46°12' W 123°56'0 0.0
2018-Jul-22 23:30N 46°12' W 123°56'0 0.0
2018-Jul-22 23:01N 46°12' W 123°56'0 0.0
2018-Jul-22 22:30N 46°12' W 123°56'0 0.0
2018-Jul-22 22:00N 46°12' W 123°56'0 0.0
2018-Jul-22 21:30N 46°12' W 123°56'0 0.0
2018-Jul-22 21:01N 46°12' W 123°56'0 0.0
2018-Jul-22 20:30N 46°12' W 123°56'0 0.0
2018-Jul-22 20:00N 46°12' W 123°56'0 0.0
2018-Jul-22 19:30N 46°12' W 123°56'0 0.0
2018-Jul-22 19:00N 46°12' W 123°56'0 0.0
2018-Jul-22 18:30N 46°12' W 123°56'0 0.0
2018-Jul-22 18:01N 46°12' W 123°56'0 0.0
2018-Jul-22 17:30N 46°12' W 123°56'0 0.0
2018-Jul-22 17:00N 46°12' W 123°56'0 0.0
2018-Jul-22 16:30N 46°12' W 123°56'0 0.0
2018-Jul-22 16:01N 46°12' W 123°56'0 0.0
2018-Jul-22 15:00N 46°12' W 123°56'0 0.0
2018-Jul-22 14:31N 46°12' W 123°56'0 0.0
2018-Jul-22 14:01N 46°12' W 123°56'0 0.0
2018-Jul-22 13:30N 46°12' W 123°56'3 5.7
2018-Jul-22 13:00N 46°14' W 123°59'4 7.4
2018-Jul-22 12:30N 46°15' W 124°04'6 7.8
2018-Jul-22 11:46N 46°19' W 124°10'2 8.6
2018-Jul-22 11:30N 46°21' W 124°12'5 9.2
2018-Jul-22 11:00N 46°25' W 124°15'5 9.2
2018-Jul-22 10:30N 46°29' W 124°18'7 9.2
2018-Jul-22 09:46N 46°36' W 124°22'3 9.1
2018-Jul-22 09:30N 46°38' W 124°24'4 9.3
2018-Jul-22 09:00N 46°42' W 124°26'5 9.4
2018-Jul-22 08:30N 46°46' W 124°29'5 9.2
2018-Jul-22 08:01N 46°50' W 124°32'8 9.5
2018-Jul-22 07:12N 46°57' W 124°37'3 0.1
2018-Jul-21 06:59N 46°60' W 124°34'6 8.4
2018-Jul-21 06:17N 46°54' W 124°30'3 8.4
2018-Jul-21 05:56N 46°52' W 124°29'4 8.2
2018-Jul-21 05:30N 46°48' W 124°27'4 8.2
2018-Jul-21 05:00N 46°45' W 124°24'4 8.4
2018-Jul-21 04:30N 46°41' W 124°22'4 8.4
2018-Jul-21 04:00N 46°37' W 124°20'4 8.0
2018-Jul-21 03:29N 46°33' W 124°18'4 7.9
2018-Jul-21 03:00N 46°29' W 124°16'4 8.4
2018-Jul-21 02:30N 46°25' W 124°13'4 8.6
2018-Jul-21 02:00N 46°22' W 124°11'6 8.6
2018-Jul-21 01:20N 46°16' W 124°07'2 6.2
2018-Jul-21 01:00N 46°16' W 124°04'6 7.4
2018-Jul-21 00:13N 46°13' W 123°57'1 3.9
2018-Jul-21 00:00N 46°12' W 123°56'0 0.0
2018-Jul-20 23:29N 46°12' W 123°56'0 0.0
2018-Jul-20 23:01N 46°12' W 123°56'0 0.0
2018-Jul-20 22:30N 46°12' W 123°56'0 0.0
2018-Jul-20 22:00N 46°12' W 123°56'0 0.0
2018-Jul-20 21:14N 46°12' W 123°56'0 0.0
2018-Jul-20 21:00N 46°12' W 123°56'0 0.0
2018-Jul-20 20:30N 46°12' W 123°56'0 0.0
2018-Jul-20 20:00N 46°12' W 123°56'0 0.0
2018-Jul-20 19:17N 46°12' W 123°56'0 0.0
2018-Jul-20 19:00N 46°12' W 123°56'0 0.0
2018-Jul-20 18:30N 46°12' W 123°56'0 0.0
2018-Jul-20 18:00N 46°12' W 123°56'0 0.0
2018-Jul-20 17:30N 46°12' W 123°56'0 0.0
2018-Jul-20 17:00N 46°12' W 123°56'0 0.0
2018-Jul-20 16:21N 46°12' W 123°56'2 6.2
2018-Jul-20 16:00N 46°14' W 123°58'4 7.9
2018-Jul-20 15:30N 46°15' W 124°04'5 8.3
2018-Jul-20 14:55N 46°19' W 124°09'6 9.0
2018-Jul-20 14:17N 46°24' W 124°12'518.9
2018-Jul-20 14:00N 46°29' W 124°15'2 4.2
2018-Jul-20 13:30N 46°31' W 124°16'5 9.4
2018-Jul-20 13:00N 46°35' W 124°19'5 9.2
2018-Jul-20 12:30N 46°39' W 124°23'5 9.1
2018-Jul-20 12:00N 46°43' W 124°25'5 9.1
2018-Jul-20 11:30N 46°47' W 124°28'4 9.0
2018-Jul-20 11:00N 46°51' W 124°31'5 9.2
2018-Jul-20 10:31N 46°55' W 124°34'5 9.2
2018-Jul-20 10:00N 46°59' W 124°38'2 0.1
2018-Jul-19 07:54N 47°01' W 124°39'3 8.2
2018-Jul-19 07:30N 46°58' W 124°37'4 8.1
2018-Jul-19 06:59N 46°55' W 124°34'4 8.2
2018-Jul-19 06:30N 46°51' W 124°32'4 8.2
2018-Jul-19 06:01N 46°47' W 124°29'4 8.1
2018-Jul-19 05:28N 46°44' W 124°27'4 7.8
2018-Jul-19 04:59N 46°40' W 124°24'4 8.0
2018-Jul-19 04:28N 46°36' W 124°21'3 7.7
2018-Jul-19 04:01N 46°33' W 124°19'4 7.8
2018-Jul-19 03:31N 46°30' W 124°16'4 8.4
2018-Jul-19 03:00N 46°26' W 124°13'4 8.3
2018-Jul-19 02:30N 46°22' W 124°11'4 7.9
2018-Jul-19 02:01N 46°19' W 124°09'4 7.7
2018-Jul-19 01:30N 46°16' W 124°06'4 7.8
2018-Jul-19 01:01N 46°15' W 124°00'3 6.6
2018-Jul-19 00:30N 46°13' W 123°57'3 6.6
2018-Jul-19 00:01N 46°12' W 123°52'1 1.0
2018-Jul-18 23:30N 46°11' W 123°52'0 0.0
2018-Jul-18 23:00N 46°11' W 123°52'0 0.0
2018-Jul-18 22:20N 46°11' W 123°52'1 2.9
2018-Jul-18 22:00N 46°12' W 123°50'0 0.0
2018-Jul-18 21:31N 46°12' W 123°50'0 0.1
2018-Jul-18 21:00N 46°12' W 123°50'4 8.5
2018-Jul-18 20:31N 46°12' W 123°56'0 0.0
2018-Jul-18 20:00N 46°12' W 123°56'0 0.0
2018-Jul-18 19:31N 46°12' W 123°56'0 0.0
2018-Jul-18 19:00N 46°12' W 123°56'0 0.0
2018-Jul-18 18:21N 46°12' W 123°56'0 0.0
2018-Jul-18 18:00N 46°12' W 123°56'0 0.0
2018-Jul-18 17:30N 46°12' W 123°56'0 0.0
2018-Jul-18 17:00N 46°12' W 123°56'0 0.0
2018-Jul-18 16:31N 46°12' W 123°56'0 0.0
2018-Jul-18 16:01N 46°12' W 123°56'0 0.0
2018-Jul-18 15:27N 46°12' W 123°56'0 0.0
2018-Jul-18 15:01N 46°12' W 123°56'0 0.0
2018-Jul-18 14:30N 46°12' W 123°56'0 0.0
2018-Jul-18 13:30N 46°12' W 123°56'0 0.0
2018-Jul-18 13:00N 46°12' W 123°56'0 0.0
2018-Jul-18 12:16N 46°12' W 123°56'1 4.1
2018-Jul-18 12:00N 46°13' W 123°57'4 7.1
2018-Jul-18 11:30N 46°15' W 124°01'6 6.2
2018-Jul-18 10:30N 46°18' W 124°09'3 6.2
2018-Jul-18 10:00N 46°21' W 124°12'4 7.6
2018-Jul-18 09:30N 46°24' W 124°14'5 9.0
2018-Jul-18 09:00N 46°28' W 124°17'5 9.0
2018-Jul-18 08:30N 46°33' W 124°19'5 9.2
2018-Jul-18 08:00N 46°37' W 124°21'5 9.1
2018-Jul-18 07:30N 46°41' W 124°24'5 9.2
2018-Jul-18 06:59N 46°45' W 124°27'5 9.4
2018-Jul-18 06:30N 46°49' W 124°30'5 9.3
2018-Jul-18 06:00N 46°54' W 124°32'5 9.5
2018-Jul-18 05:30N 46°58' W 124°35'34 2.0
2018-Jul-17 12:22N 47°29' W 124°55'1 1.4
2018-Jul-17 11:48N 47°28' W 124°54'1 1.5
2018-Jul-17 11:23N 47°28' W 124°54'12 7.8
2018-Jul-17 09:54N 47°17' W 124°47'3 7.9
2018-Jul-17 09:30N 47°14' W 124°45'8 7.8
2018-Jul-17 08:32N 47°07' W 124°40'4 7.9
2018-Jul-17 08:04N 47°04' W 124°38'1 8.3
2018-Jul-17 07:58N 47°03' W 124°37'4 8.1
2018-Jul-17 07:30N 46°60' W 124°35'4 7.9
2018-Jul-17 06:59N 46°56' W 124°33'4 7.9
2018-Jul-17 06:30N 46°53' W 124°30'4 7.6
2018-Jul-17 06:00N 46°49' W 124°28'4 7.7
2018-Jul-17 05:30N 46°46' W 124°25'4 7.8
2018-Jul-17 04:59N 46°42' W 124°23'4 7.8
2018-Jul-17 04:30N 46°39' W 124°21'4 8.1
2018-Jul-17 04:01N 46°35' W 124°18'4 8.5
2018-Jul-17 03:30N 46°31' W 124°16'5 8.5
2018-Jul-17 02:58N 46°27' W 124°13'4 8.6
2018-Jul-17 02:30N 46°23' W 124°10'4 8.4
2018-Jul-17 02:00N 46°20' W 124°08'4 8.3
2018-Jul-17 01:30N 46°16' W 124°06'5 9.6
2018-Jul-17 01:00N 46°14' W 123°59'3 6.3
2018-Jul-17 00:29N 46°12' W 123°56'0 0.0
2018-Jul-16 23:31N 46°12' W 123°56'0 0.0
2018-Jul-16 23:00N 46°12' W 123°56'0 0.0
2018-Jul-16 22:30N 46°12' W 123°56'0 0.0
2018-Jul-16 22:00N 46°12' W 123°56'0 0.0
2018-Jul-16 21:28N 46°12' W 123°56'0 0.0
2018-Jul-16 21:00N 46°12' W 123°56'0 0.0
2018-Jul-16 20:30N 46°12' W 123°56'0 0.0
2018-Jul-16 19:59N 46°12' W 123°56'0 0.0
2018-Jul-16 19:29N 46°12' W 123°56'0 0.0
2018-Jul-16 19:00N 46°12' W 123°56'0 0.0
2018-Jul-16 18:30N 46°12' W 123°56'0 0.0
2018-Jul-16 18:00N 46°12' W 123°56'0 0.0
2018-Jul-16 17:31N 46°12' W 123°56'0 0.0
2018-Jul-16 17:00N 46°12' W 123°56'0 0.0
2018-Jul-16 16:30N 46°12' W 123°56'0 0.0
2018-Jul-16 16:00N 46°12' W 123°56'0 0.0
2018-Jul-16 15:31N 46°12' W 123°56'0 0.0
2018-Jul-16 15:00N 46°12' W 123°56'0 0.0
2018-Jul-16 14:30N 46°12' W 123°56'0 0.0
2018-Jul-16 14:00N 46°12' W 123°56'0 0.0
2018-Jul-16 13:30N 46°12' W 123°56'0 0.0
2018-Jul-16 13:00N 46°12' W 123°56'0 0.0
2018-Jul-16 12:30N 46°12' W 123°56'0 0.0
2018-Jul-16 12:00N 46°12' W 123°56'2 4.0
2018-Jul-16 11:31N 46°13' W 123°58'4 7.9
2018-Jul-16 11:01N 46°15' W 124°03'3 6.5
2018-Jul-16 10:31N 46°16' W 124°08'1 1.5
2018-Jul-16 10:01N 46°17' W 124°08'2 4.6
2018-Jul-16 09:30N 46°19' W 124°09'2 3.8
2018-Jul-16 09:00N 46°21' W 124°11'2 3.4
2018-Jul-16 08:30N 46°22' W 124°12'2 3.6
2018-Jul-16 08:00N 46°24' W 124°13'2 3.9
2018-Jul-16 07:31N 46°25' W 124°15'1 2.9
2018-Jul-16 07:01N 46°27' W 124°15'2 3.8
2018-Jul-16 06:31N 46°29' W 124°17'2 4.6
2018-Jul-16 06:00N 46°31' W 124°17'3 6.0
2018-Jul-16 05:30N 46°34' W 124°19'3 6.1
2018-Jul-16 05:00N 46°36' W 124°20'3 5.2
2018-Jul-16 04:30N 46°39' W 124°22'1 1.3
2018-Jul-16 04:00N 46°38' W 124°21'3 6.5
2018-Jul-16 03:30N 46°41' W 124°23'3 6.6
2018-Jul-16 03:00N 46°44' W 124°25'3 6.6
2018-Jul-16 02:31N 46°47' W 124°27'3 6.6
2018-Jul-16 02:01N 46°50' W 124°30'3 6.6
2018-Jul-16 01:30N 46°53' W 124°32'3 6.5
2018-Jul-16 01:00N 46°56' W 124°34'3 6.4
2018-Jul-16 00:30N 46°59' W 124°36'4 6.7
2018-Jul-15 23:55N 47°03' W 124°38'3 6.8
2018-Jul-15 23:30N 47°05' W 124°40'13 6.7
2018-Jul-15 21:33N 47°17' W 124°47'1 1.8
2018-Jul-15 21:11N 47°18' W 124°46'1 3.0
2018-Jul-15 20:56N 47°19' W 124°46'1 2.8
2018-Jul-15 20:30N 47°20' W 124°47'2 3.1
2018-Jul-15 20:00N 47°21' W 124°48'2 3.9
2018-Jul-15 19:30N 47°23' W 124°48'1 2.1
2018-Jul-15 19:00N 47°22' W 124°48'1 0.6
2018-Jul-15 17:47N 47°21' W 124°48'1 3.2
2018-Jul-15 17:30N 47°21' W 124°48'1 3.0
2018-Jul-15 17:00N 47°19' W 124°47'2 3.3
2018-Jul-15 16:30N 47°18' W 124°46'0 0.8
2018-Jul-15 15:59N 47°18' W 124°46'2 3.7
2018-Jul-15 15:29N 47°20' W 124°47'2 4.1
2018-Jul-15 15:00N 47°22' W 124°49'1 1.0
2018-Jul-15 14:20N 47°22' W 124°48'1 2.6
2018-Jul-15 14:00N 47°21' W 124°47'2 2.9
2018-Jul-15 13:24N 47°19' W 124°46'1 3.3
2018-Jul-15 13:00N 47°18' W 124°46'0 0.9
2018-Jul-15 12:30N 47°18' W 124°46'1 0.8
2018-Jul-15 11:35N 47°19' W 124°45'0 0.8
2018-Jul-15 11:29N 47°19' W 124°45'0 0.6
2018-Jul-15 10:59N 47°19' W 124°45'7 2.4
2018-Jul-15 08:08N 47°13' W 124°43'1 6.6
2018-Jul-15 07:59N 47°12' W 124°43'3 6.6
2018-Jul-15 07:30N 47°09' W 124°41'4 6.5
2018-Jul-15 06:49N 47°04' W 124°40'2 6.6
2018-Jul-15 06:30N 47°02' W 124°40'3 6.8
2018-Jul-15 06:00N 46°59' W 124°39'3 6.8
2018-Jul-15 05:30N 46°56' W 124°38'3 6.6
2018-Jul-15 05:00N 46°52' W 124°37'3 6.5
2018-Jul-15 04:30N 46°49' W 124°35'3 6.5
2018-Jul-15 04:01N 46°47' W 124°33'3 6.6
2018-Jul-15 03:30N 46°44' W 124°31'3 6.8
2018-Jul-15 03:00N 46°40' W 124°29'3 6.9
2018-Jul-15 02:30N 46°37' W 124°27'3 6.8
2018-Jul-15 02:01N 46°34' W 124°25'3 6.6
2018-Jul-15 01:31N 46°31' W 124°23'3 6.6
2018-Jul-15 01:00N 46°28' W 124°20'3 6.5
2018-Jul-15 00:31N 46°26' W 124°18'3 6.7
2018-Jul-15 00:00N 46°23' W 124°16'5 6.7
2018-Jul-14 23:13N 46°19' W 124°11'1 6.6
2018-Jul-14 23:00N 46°18' W 124°09'3 6.6
2018-Jul-14 22:31N 46°16' W 124°05'3 6.9
2018-Jul-14 22:00N 46°15' W 124°00'3 5.7
2018-Jul-14 21:30N 46°13' W 123°57'1 2.7
2018-Jul-14 21:00N 46°12' W 123°56'0 0.0
2018-Jul-14 20:30N 46°12' W 123°56'0 0.0
2018-Jul-14 20:00N 46°12' W 123°56'0 0.0
2018-Jul-14 19:31N 46°12' W 123°56'0 0.0
2018-Jul-14 19:01N 46°12' W 123°56'0 0.0
2018-Jul-14 18:29N 46°12' W 123°56'0 0.0
2018-Jul-14 18:01N 46°12' W 123°56'0 0.0
2018-Jul-14 17:30N 46°12' W 123°56'0 0.0
2018-Jul-14 17:00N 46°12' W 123°56'0 0.0
2018-Jul-14 16:30N 46°12' W 123°56'1 1.5
2018-Jul-14 16:00N 46°12' W 123°55'3 5.3
2018-Jul-14 15:31N 46°11' W 123°52'3 5.7
2018-Jul-14 15:00N 46°12' W 123°56'6 5.8
2018-Jul-14 14:00N 46°16' W 124°02'3 5.0
2018-Jul-14 13:29N 46°16' W 124°06'4 7.8
2018-Jul-14 13:00N 46°19' W 124°09'5 9.7
2018-Jul-14 12:30N 46°23' W 124°12'510.1
2018-Jul-14 12:00N 46°28' W 124°15'510.2
2018-Jul-14 11:30N 46°32' W 124°18'510.2
2018-Jul-14 11:00N 46°37' W 124°21'510.2
2018-Jul-14 10:30N 46°42' W 124°24'5 9.9
2018-Jul-14 10:01N 46°46' W 124°26'8 9.8
2018-Jul-14 09:15N 46°53' W 124°30'210.1
2018-Jul-14 09:00N 46°56' W 124°32'  
Track history (hours):
 
Tides and Currents Weather Stations Pressure Air Temp Water Temp Dewpoint Dewpoint Depression Visibility Wind Speed Wind Dir Waves Ship Positions

Muir Milach

Owner: Aleutian Spray Reverse LLC, Seattle, WA. More information available from US FCC via Universal Licensing System and Coast Guard Vessel Documentation Center.

Last reported at 2018-Jul-23 00:01 UTC. Time now 2018-Jul-23 00:19 UTC.
Position N 46°12' W 123°56'.

Length 28 m; draft 3.5 m.

Type: Fishing. MMSI: 367672390.

Date/timePositionNaut miles runAvg speedWind from/ knotsBaromVisibWave heightAir tempDewpointWater temp
2018-Jul-23 00:01N 46°12' W 123°56'0 0.0
2018-Jul-22 23:30N 46°12' W 123°56'0 0.0
2018-Jul-22 23:01N 46°12' W 123°56'0 0.0
2018-Jul-22 22:30N 46°12' W 123°56'0 0.0
2018-Jul-22 22:00N 46°12' W 123°56'0 0.0
2018-Jul-22 21:30N 46°12' W 123°56'0 0.0
2018-Jul-22 21:01N 46°12' W 123°56'0 0.0
2018-Jul-22 20:30N 46°12' W 123°56'0 0.0
2018-Jul-22 20:00N 46°12' W 123°56'0 0.0
2018-Jul-22 19:30N 46°12' W 123°56'0 0.0
2018-Jul-22 19:00N 46°12' W 123°56'0 0.0
2018-Jul-22 18:30N 46°12' W 123°56'0 0.0
2018-Jul-22 18:01N 46°12' W 123°56'0 0.0
2018-Jul-22 17:30N 46°12' W 123°56'0 0.0
2018-Jul-22 17:00N 46°12' W 123°56'0 0.0
2018-Jul-22 16:30N 46°12' W 123°56'0 0.0
2018-Jul-22 16:01N 46°12' W 123°56'0 0.0
2018-Jul-22 15:00N 46°12' W 123°56'0 0.0
2018-Jul-22 14:31N 46°12' W 123°56'0 0.0
2018-Jul-22 14:01N 46°12' W 123°56'0 0.0
2018-Jul-22 13:30N 46°12' W 123°56'3 5.7
2018-Jul-22 13:00N 46°14' W 123°59'4 7.4
2018-Jul-22 12:30N 46°15' W 124°04'6 7.8
2018-Jul-22 11:46N 46°19' W 124°10'2 8.6
2018-Jul-22 11:30N 46°21' W 124°12'5 9.2
2018-Jul-22 11:00N 46°25' W 124°15'5 9.2
2018-Jul-22 10:30N 46°29' W 124°18'7 9.2
2018-Jul-22 09:46N 46°36' W 124°22'3 9.1
2018-Jul-22 09:30N 46°38' W 124°24'4 9.3
2018-Jul-22 09:00N 46°42' W 124°26'5 9.4
2018-Jul-22 08:30N 46°46' W 124°29'5 9.2
2018-Jul-22 08:01N 46°50' W 124°32'8 9.5
2018-Jul-22 07:12N 46°57' W 124°37'3 0.1
2018-Jul-21 06:59N 46°60' W 124°34'6 8.4
2018-Jul-21 06:17N 46°54' W 124°30'3 8.4
2018-Jul-21 05:56N 46°52' W 124°29'4 8.2
2018-Jul-21 05:30N 46°48' W 124°27'4 8.2
2018-Jul-21 05:00N 46°45' W 124°24'4 8.4
2018-Jul-21 04:30N 46°41' W 124°22'4 8.4
2018-Jul-21 04:00N 46°37' W 124°20'4 8.0
2018-Jul-21 03:29N 46°33' W 124°18'4 7.9
2018-Jul-21 03:00N 46°29' W 124°16'4 8.4
2018-Jul-21 02:30N 46°25' W 124°13'4 8.6
2018-Jul-21 02:00N 46°22' W 124°11'6 8.6
2018-Jul-21 01:20N 46°16' W 124°07'2 6.2
2018-Jul-21 01:00N 46°16' W 124°04'6 7.4
2018-Jul-21 00:13N 46°13' W 123°57'1 3.9
2018-Jul-21 00:00N 46°12' W 123°56'0 0.0
2018-Jul-20 23:29N 46°12' W 123°56'0 0.0
2018-Jul-20 23:01N 46°12' W 123°56'0 0.0
2018-Jul-20 22:30N 46°12' W 123°56'0 0.0
2018-Jul-20 22:00N 46°12' W 123°56'0 0.0
2018-Jul-20 21:14N 46°12' W 123°56'0 0.0
2018-Jul-20 21:00N 46°12' W 123°56'0 0.0
2018-Jul-20 20:30N 46°12' W 123°56'0 0.0
2018-Jul-20 20:00N 46°12' W 123°56'0 0.0
2018-Jul-20 19:17N 46°12' W 123°56'0 0.0
2018-Jul-20 19:00N 46°12' W 123°56'0 0.0
2018-Jul-20 18:30N 46°12' W 123°56'0 0.0
2018-Jul-20 18:00N 46°12' W 123°56'0 0.0
2018-Jul-20 17:30N 46°12' W 123°56'0 0.0
2018-Jul-20 17:00N 46°12' W 123°56'0 0.0
2018-Jul-20 16:21N 46°12' W 123°56'2 6.2
2018-Jul-20 16:00N 46°14' W 123°58'4 7.9
2018-Jul-20 15:30N 46°15' W 124°04'5 8.3
2018-Jul-20 14:55N 46°19' W 124°09'6 9.0
2018-Jul-20 14:17N 46°24' W 124°12'518.9
2018-Jul-20 14:00N 46°29' W 124°15'2 4.2
2018-Jul-20 13:30N 46°31' W 124°16'5 9.4
2018-Jul-20 13:00N 46°35' W 124°19'5 9.2
2018-Jul-20 12:30N 46°39' W 124°23'5 9.1
2018-Jul-20 12:00N 46°43' W 124°25'5 9.1
2018-Jul-20 11:30N 46°47' W 124°28'4 9.0
2018-Jul-20 11:00N 46°51' W 124°31'5 9.2
2018-Jul-20 10:31N 46°55' W 124°34'5 9.2
2018-Jul-20 10:00N 46°59' W 124°38'2 0.1
2018-Jul-19 07:54N 47°01' W 124°39'3 8.2
2018-Jul-19 07:30N 46°58' W 124°37'4 8.1
2018-Jul-19 06:59N 46°55' W 124°34'4 8.2
2018-Jul-19 06:30N 46°51' W 124°32'4 8.2
2018-Jul-19 06:01N 46°47' W 124°29'4 8.1
2018-Jul-19 05:28N 46°44' W 124°27'4 7.8
2018-Jul-19 04:59N 46°40' W 124°24'4 8.0
2018-Jul-19 04:28N 46°36' W 124°21'3 7.7
2018-Jul-19 04:01N 46°33' W 124°19'4 7.8
2018-Jul-19 03:31N 46°30' W 124°16'4 8.4
2018-Jul-19 03:00N 46°26' W 124°13'4 8.3
2018-Jul-19 02:30N 46°22' W 124°11'4 7.9
2018-Jul-19 02:01N 46°19' W 124°09'4 7.7
2018-Jul-19 01:30N 46°16' W 124°06'4 7.8
2018-Jul-19 01:01N 46°15' W 124°00'3 6.6
2018-Jul-19 00:30N 46°13' W 123°57'3 6.6
2018-Jul-19 00:01N 46°12' W 123°52'1 1.0
2018-Jul-18 23:30N 46°11' W 123°52'0 0.0
2018-Jul-18 23:00N 46°11' W 123°52'0 0.0
2018-Jul-18 22:20N 46°11' W 123°52'1 2.9
2018-Jul-18 22:00N 46°12' W 123°50'0 0.0
2018-Jul-18 21:31N 46°12' W 123°50'0 0.1
2018-Jul-18 21:00N 46°12' W 123°50'4 8.5
2018-Jul-18 20:31N 46°12' W 123°56'0 0.0
2018-Jul-18 20:00N 46°12' W 123°56'0 0.0
2018-Jul-18 19:31N 46°12' W 123°56'0 0.0
2018-Jul-18 19:00N 46°12' W 123°56'0 0.0
2018-Jul-18 18:21N 46°12' W 123°56'0 0.0
2018-Jul-18 18:00N 46°12' W 123°56'0 0.0
2018-Jul-18 17:30N 46°12' W 123°56'0 0.0
2018-Jul-18 17:00N 46°12' W 123°56'0 0.0
2018-Jul-18 16:31N 46°12' W 123°56'0 0.0
2018-Jul-18 16:01N 46°12' W 123°56'0 0.0
2018-Jul-18 15:27N 46°12' W 123°56'0 0.0
2018-Jul-18 15:01N 46°12' W 123°56'0 0.0
2018-Jul-18 14:30N 46°12' W 123°56'0 0.0
2018-Jul-18 13:30N 46°12' W 123°56'0 0.0
2018-Jul-18 13:00N 46°12' W 123°56'0 0.0
2018-Jul-18 12:16N 46°12' W 123°56'1 4.1
2018-Jul-18 12:00N 46°13' W 123°57'4 7.1
2018-Jul-18 11:30N 46°15' W 124°01'6 6.2
2018-Jul-18 10:30N 46°18' W 124°09'3 6.2
2018-Jul-18 10:00N 46°21' W 124°12'4 7.6
2018-Jul-18 09:30N 46°24' W 124°14'5 9.0
2018-Jul-18 09:00N 46°28' W 124°17'5 9.0
2018-Jul-18 08:30N 46°33' W 124°19'5 9.2
2018-Jul-18 08:00N 46°37' W 124°21'5 9.1
2018-Jul-18 07:30N 46°41' W 124°24'5 9.2
2018-Jul-18 06:59N 46°45' W 124°27'5 9.4
2018-Jul-18 06:30N 46°49' W 124°30'5 9.3
2018-Jul-18 06:00N 46°54' W 124°32'5 9.5
2018-Jul-18 05:30N 46°58' W 124°35'34 2.0
2018-Jul-17 12:22N 47°29' W 124°55'1 1.4
2018-Jul-17 11:48N 47°28' W 124°54'1 1.5
2018-Jul-17 11:23N 47°28' W 124°54'12 7.8
2018-Jul-17 09:54N 47°17' W 124°47'3 7.9
2018-Jul-17 09:30N 47°14' W 124°45'8 7.8
2018-Jul-17 08:32N 47°07' W 124°40'4 7.9
2018-Jul-17 08:04N 47°04' W 124°38'1 8.3
2018-Jul-17 07:58N 47°03' W 124°37'4 8.1
2018-Jul-17 07:30N 46°60' W 124°35'4 7.9
2018-Jul-17 06:59N 46°56' W 124°33'4 7.9
2018-Jul-17 06:30N 46°53' W 124°30'4 7.6
2018-Jul-17 06:00N 46°49' W 124°28'4 7.7
2018-Jul-17 05:30N 46°46' W 124°25'4 7.8
2018-Jul-17 04:59N 46°42' W 124°23'4 7.8
2018-Jul-17 04:30N 46°39' W 124°21'4 8.1
2018-Jul-17 04:01N 46°35' W 124°18'4 8.5
2018-Jul-17 03:30N 46°31' W 124°16'5 8.5
2018-Jul-17 02:58N 46°27' W 124°13'4 8.6
2018-Jul-17 02:30N 46°23' W 124°10'4 8.4
2018-Jul-17 02:00N 46°20' W 124°08'4 8.3
2018-Jul-17 01:30N 46°16' W 124°06'5 9.6
2018-Jul-17 01:00N 46°14' W 123°59'3 6.3
2018-Jul-17 00:29N 46°12' W 123°56'0 0.0
2018-Jul-16 23:31N 46°12' W 123°56'0 0.0
2018-Jul-16 23:00N 46°12' W 123°56'0 0.0
2018-Jul-16 22:30N 46°12' W 123°56'0 0.0
2018-Jul-16 22:00N 46°12' W 123°56'0 0.0
2018-Jul-16 21:28N 46°12' W 123°56'0 0.0
2018-Jul-16 21:00N 46°12' W 123°56'0 0.0
2018-Jul-16 20:30N 46°12' W 123°56'0 0.0
2018-Jul-16 19:59N 46°12' W 123°56'0 0.0
2018-Jul-16 19:29N 46°12' W 123°56'0 0.0
2018-Jul-16 19:00N 46°12' W 123°56'0 0.0
2018-Jul-16 18:30N 46°12' W 123°56'0 0.0
2018-Jul-16 18:00N 46°12' W 123°56'0 0.0
2018-Jul-16 17:31N 46°12' W 123°56'0 0.0
2018-Jul-16 17:00N 46°12' W 123°56'0 0.0
2018-Jul-16 16:30N 46°12' W 123°56'0 0.0
2018-Jul-16 16:00N 46°12' W 123°56'0 0.0
2018-Jul-16 15:31N 46°12' W 123°56'0 0.0
2018-Jul-16 15:00N 46°12' W 123°56'0 0.0
2018-Jul-16 14:30N 46°12' W 123°56'0 0.0
2018-Jul-16 14:00N 46°12' W 123°56'0 0.0
2018-Jul-16 13:30N 46°12' W 123°56'0 0.0
2018-Jul-16 13:00N 46°12' W 123°56'0 0.0
2018-Jul-16 12:30N 46°12' W 123°56'0 0.0
2018-Jul-16 12:00N 46°12' W 123°56'2 4.0
2018-Jul-16 11:31N 46°13' W 123°58'4 7.9
2018-Jul-16 11:01N 46°15' W 124°03'3 6.5
2018-Jul-16 10:31N 46°16' W 124°08'1 1.5
2018-Jul-16 10:01N 46°17' W 124°08'2 4.6
2018-Jul-16 09:30N 46°19' W 124°09'2 3.8
2018-Jul-16 09:00N 46°21' W 124°11'2 3.4
2018-Jul-16 08:30N 46°22' W 124°12'2 3.6
2018-Jul-16 08:00N 46°24' W 124°13'2 3.9
2018-Jul-16 07:31N 46°25' W 124°15'1 2.9
2018-Jul-16 07:01N 46°27' W 124°15'2 3.8
2018-Jul-16 06:31N 46°29' W 124°17'2 4.6
2018-Jul-16 06:00N 46°31' W 124°17'3 6.0
2018-Jul-16 05:30N 46°34' W 124°19'3 6.1
2018-Jul-16 05:00N 46°36' W 124°20'3 5.2
2018-Jul-16 04:30N 46°39' W 124°22'1 1.3
2018-Jul-16 04:00N 46°38' W 124°21'3 6.5
2018-Jul-16 03:30N 46°41' W 124°23'3 6.6
2018-Jul-16 03:00N 46°44' W 124°25'3 6.6
2018-Jul-16 02:31N 46°47' W 124°27'3 6.6
2018-Jul-16 02:01N 46°50' W 124°30'3 6.6
2018-Jul-16 01:30N 46°53' W 124°32'3 6.5
2018-Jul-16 01:00N 46°56' W 124°34'3 6.4
2018-Jul-16 00:30N 46°59' W 124°36'4 6.7
2018-Jul-15 23:55N 47°03' W 124°38'3 6.8
2018-Jul-15 23:30N 47°05' W 124°40'13 6.7
2018-Jul-15 21:33N 47°17' W 124°47'1 1.8
2018-Jul-15 21:11N 47°18' W 124°46'1 3.0
2018-Jul-15 20:56N 47°19' W 124°46'1 2.8
2018-Jul-15 20:30N 47°20' W 124°47'2 3.1
2018-Jul-15 20:00N 47°21' W 124°48'2 3.9
2018-Jul-15 19:30N 47°23' W 124°48'1 2.1
2018-Jul-15 19:00N 47°22' W 124°48'1 0.6
2018-Jul-15 17:47N 47°21' W 124°48'1 3.2
2018-Jul-15 17:30N 47°21' W 124°48'1 3.0
2018-Jul-15 17:00N 47°19' W 124°47'2 3.3
2018-Jul-15 16:30N 47°18' W 124°46'0 0.8
2018-Jul-15 15:59N 47°18' W 124°46'2 3.7
2018-Jul-15 15:29N 47°20' W 124°47'2 4.1
2018-Jul-15 15:00N 47°22' W 124°49'1 1.0
2018-Jul-15 14:20N 47°22' W 124°48'1 2.6
2018-Jul-15 14:00N 47°21' W 124°47'2 2.9
2018-Jul-15 13:24N 47°19' W 124°46'1 3.3
2018-Jul-15 13:00N 47°18' W 124°46'0 0.9
2018-Jul-15 12:30N 47°18' W 124°46'1 0.8
2018-Jul-15 11:35N 47°19' W 124°45'0 0.8
2018-Jul-15 11:29N 47°19' W 124°45'0 0.6
2018-Jul-15 10:59N 47°19' W 124°45'7 2.4
2018-Jul-15 08:08N 47°13' W 124°43'1 6.6
2018-Jul-15 07:59N 47°12' W 124°43'3 6.6
2018-Jul-15 07:30N 47°09' W 124°41'4 6.5
2018-Jul-15 06:49N 47°04' W 124°40'2 6.6
2018-Jul-15 06:30N 47°02' W 124°40'3 6.8
2018-Jul-15 06:00N 46°59' W 124°39'3 6.8
2018-Jul-15 05:30N 46°56' W 124°38'3 6.6
2018-Jul-15 05:00N 46°52' W 124°37'3 6.5
2018-Jul-15 04:30N 46°49' W 124°35'3 6.5
2018-Jul-15 04:01N 46°47' W 124°33'3 6.6
2018-Jul-15 03:30N 46°44' W 124°31'3 6.8
2018-Jul-15 03:00N 46°40' W 124°29'3 6.9
2018-Jul-15 02:30N 46°37' W 124°27'3 6.8
2018-Jul-15 02:01N 46°34' W 124°25'3 6.6
2018-Jul-15 01:31N 46°31' W 124°23'3 6.6
2018-Jul-15 01:00N 46°28' W 124°20'3 6.5
2018-Jul-15 00:31N 46°26' W 124°18'3 6.7
2018-Jul-15 00:00N 46°23' W 124°16'5 6.7
2018-Jul-14 23:13N 46°19' W 124°11'1 6.6
2018-Jul-14 23:00N 46°18' W 124°09'3 6.6
2018-Jul-14 22:31N 46°16' W 124°05'3 6.9
2018-Jul-14 22:00N 46°15' W 124°00'3 5.7
2018-Jul-14 21:30N 46°13' W 123°57'1 2.7
2018-Jul-14 21:00N 46°12' W 123°56'0 0.0
2018-Jul-14 20:30N 46°12' W 123°56'0 0.0
2018-Jul-14 20:00N 46°12' W 123°56'0 0.0
2018-Jul-14 19:31N 46°12' W 123°56'0 0.0
2018-Jul-14 19:01N 46°12' W 123°56'0 0.0
2018-Jul-14 18:29N 46°12' W 123°56'0 0.0
2018-Jul-14 18:01N 46°12' W 123°56'0 0.0
2018-Jul-14 17:30N 46°12' W 123°56'0 0.0
2018-Jul-14 17:00N 46°12' W 123°56'0 0.0
2018-Jul-14 16:30N 46°12' W 123°56'1 1.5
2018-Jul-14 16:00N 46°12' W 123°55'3 5.3
2018-Jul-14 15:31N 46°11' W 123°52'3 5.7
2018-Jul-14 15:00N 46°12' W 123°56'6 5.8
2018-Jul-14 14:00N 46°16' W 124°02'3 5.0
2018-Jul-14 13:29N 46°16' W 124°06'4 7.8
2018-Jul-14 13:00N 46°19' W 124°09'5 9.7
2018-Jul-14 12:30N 46°23' W 124°12'510.1
2018-Jul-14 12:00N 46°28' W 124°15'510.2
2018-Jul-14 11:30N 46°32' W 124°18'510.2
2018-Jul-14 11:00N 46°37' W 124°21'510.2
2018-Jul-14 10:30N 46°42' W 124°24'5 9.9
2018-Jul-14 10:01N 46°46' W 124°26'8 9.8
2018-Jul-14 09:15N 46°53' W 124°30'210.1
2018-Jul-14 09:00N 46°56' W 124°32'  

Dump ship's entire track history